Terminal Aerodrome Forecast
Issued by NWS Binghamton, NY

Home | Current Version | Previous Version | Text Only | Print | Product List | Glossary On
Versions: 1 2 3 4 5 6 7 8 9 10 11 12 13 14 15 16 17 18 19 20 21 22 23 24 25 26 27 28 29 30 31 32
000
FTUS41 KBGM 220836 AAB
TAFBGM
TAF AMD
KBGM 220836Z 2209/2306 17004KT 2SM BR OVC120
      TEMPO 2209/2211 1/4SM FG VV002
     FM221200 VRB03KT 2SM BR OVC002
     FM221600 13004KT 3SM BR OVC015
     FM222300 10007KT 1/4SM FG OVC001=

USA.gov is the U.S. government's official web portal to all federal, state and local government web resources and services.